sensor_id;sensor_type;location;lat;lon;timestamp;P1;durP1;ratioP1;P2;durP2;ratioP2
8139;SDS011;4111;50.972;7.072;2023-08-21T00:00:12;5.80;;;5.18;;
8139;SDS011;4111;50.972;7.072;2023-08-21T00:02:39;5.78;;;5.20;;
8139;SDS011;4111;50.972;7.072;2023-08-21T00:05:06;6.60;;;4.32;;
8139;SDS011;4111;50.972;7.072;2023-08-21T00:07:33;6.95;;;4.70;;
8139;SDS011;4111;50.972;7.072;2023-08-21T00:09:59;6.10;;;5.50;;
8139;SDS011;4111;50.972;7.072;2023-08-21T00:12:26;7.28;;;5.55;;
8139;SDS011;4111;50.972;7.072;2023-08-21T00:14:52;6.03;;;5.43;;
8139;SDS011;4111;50.972;7.072;2023-08-21T00:17:19;6.28;;;5.72;;
8139;SDS011;4111;50.972;7.072;2023-08-21T00:19:45;5.80;;;5.30;;
8139;SDS011;4111;50.972;7.072;2023-08-21T00:22:11;6.07;;;5.47;;
8139;SDS011;4111;50.972;7.072;2023-08-21T00:24:38;7.75;;;5.70;;
8139;SDS011;4111;50.972;7.072;2023-08-21T00:27:04;7.07;;;5.32;;
8139;SDS011;4111;50.972;7.072;2023-08-21T00:29:31;10.30;;;6.20;;
8139;SDS011;4111;50.972;7.072;2023-08-21T00:31:57;6.63;;;5.22;;
8139;SDS011;4111;50.972;7.072;2023-08-21T00:34:24;8.10;;;5.70;;
8139;SDS011;4111;50.972;7.072;2023-08-21T00:36:50;8.60;;;5.85;;
8139;SDS011;4111;50.972;7.072;2023-08-21T00:39:16;12.10;;;6.07;;
8139;SDS011;4111;50.972;7.072;2023-08-21T00:41:43;6.57;;;5.53;;
8139;SDS011;4111;50.972;7.072;2023-08-21T00:44:09;8.07;;;6.03;;
8139;SDS011;4111;50.972;7.072;2023-08-21T00:46:36;6.47;;;5.97;;
8139;SDS011;4111;50.972;7.072;2023-08-21T00:49:02;5.55;;;5.05;;
8139;SDS011;4111;50.972;7.072;2023-08-21T00:51:30;7.47;;;5.55;;
8139;SDS011;4111;50.972;7.072;2023-08-21T00:53:56;5.80;;;4.95;;
8139;SDS011;4111;50.972;7.072;2023-08-21T00:56:23;6.07;;;5.25;;
8139;SDS011;4111;50.972;7.072;2023-08-21T00:58:50;11.25;;;5.68;;
8139;SDS011;4111;50.972;7.072;2023-08-21T01:01:16;8.63;;;5.72;;
8139;SDS011;4111;50.972;7.072;2023-08-21T01:03:44;8.93;;;5.30;;
8139;SDS011;4111;50.972;7.072;2023-08-21T01:06:11;5.70;;;5.20;;
8139;SDS011;4111;50.972;7.072;2023-08-21T01:08:42;6.20;;;4.80;;
8139;SDS011;4111;50.972;7.072;2023-08-21T01:11:18;7.57;;;4.30;;
8139;SDS011;4111;50.972;7.072;2023-08-21T01:16:40;5.95;;;5.10;;
8139;SDS011;4111;50.972;7.072;2023-08-21T01:19:11;6.28;;;4.80;;
8139;SDS011;4111;50.972;7.072;2023-08-21T01:22:04;5.93;;;5.43;;
8139;SDS011;4111;50.972;7.072;2023-08-21T01:24:31;5.90;;;5.35;;
8139;SDS011;4111;50.972;7.072;2023-08-21T01:26:57;8.52;;;5.68;;
8139;SDS011;4111;50.972;7.072;2023-08-21T01:29:24;8.43;;;5.82;;
8139;SDS011;4111;50.972;7.072;2023-08-21T01:34:36;5.20;;;4.70;;
8139;SDS011;4111;50.972;7.072;2023-08-21T01:37:05;5.68;;;5.18;;
8139;SDS011;4111;50.972;7.072;2023-08-21T01:39:33;6.63;;;5.53;;
8139;SDS011;4111;50.972;7.072;2023-08-21T01:42:00;9.37;;;6.03;;
8139;SDS011;4111;50.972;7.072;2023-08-21T01:44:29;9.63;;;5.97;;
8139;SDS011;4111;50.972;7.072;2023-08-21T01:46:55;6.10;;;5.60;;
8139;SDS011;4111;50.972;7.072;2023-08-21T01:49:22;6.50;;;5.87;;
8139;SDS011;4111;50.972;7.072;2023-08-21T01:51:48;6.32;;;5.82;;
8139;SDS011;4111;50.972;7.072;2023-08-21T01:54:15;8.50;;;7.43;;
8139;SDS011;4111;50.972;7.072;2023-08-21T01:56:41;6.33;;;5.50;;
8139;SDS011;4111;50.972;7.072;2023-08-21T01:59:07;6.17;;;5.00;;
8139;SDS011;4111;50.972;7.072;2023-08-21T02:01:34;6.43;;;5.33;;
8139;SDS011;4111;50.972;7.072;2023-08-21T02:04:00;10.97;;;5.50;;
8139;SDS011;4111;50.972;7.072;2023-08-21T02:06:27;8.23;;;6.00;;
8139;SDS011;4111;50.972;7.072;2023-08-21T02:08:53;14.40;;;7.60;;
8139;SDS011;4111;50.972;7.072;2023-08-21T02:11:20;8.63;;;6.27;;
8139;SDS011;4111;50.972;7.072;2023-08-21T02:13:46;12.47;;;5.50;;
8139;SDS011;4111;50.972;7.072;2023-08-21T02:16:12;5.97;;;4.93;;
8139;SDS011;4111;50.972;7.072;2023-08-21T02:18:39;6.50;;;5.60;;
8139;SDS011;4111;50.972;7.072;2023-08-21T02:21:05;8.47;;;5.63;;
8139;SDS011;4111;50.972;7.072;2023-08-21T02:23:32;6.43;;;5.00;;
8139;SDS011;4111;50.972;7.072;2023-08-21T02:25:58;9.07;;;4.60;;
8139;SDS011;4111;50.972;7.072;2023-08-21T02:28:24;5.50;;;4.70;;
8139;SDS011;4111;50.972;7.072;2023-08-21T02:30:51;5.70;;;5.18;;
8139;SDS011;4111;50.972;7.072;2023-08-21T02:33:17;8.00;;;5.78;;
8139;SDS011;4111;50.972;7.072;2023-08-21T02:35:44;8.00;;;6.10;;
8139;SDS011;4111;50.972;7.072;2023-08-21T02:38:10;7.03;;;5.03;;
8139;SDS011;4111;50.972;7.072;2023-08-21T02:40:37;5.70;;;5.10;;
8139;SDS011;4111;50.972;7.072;2023-08-21T02:43:04;6.07;;;5.40;;
8139;SDS011;4111;50.972;7.072;2023-08-21T02:45:31;6.20;;;5.45;;
8139;SDS011;4111;50.972;7.072;2023-08-21T02:47:57;9.67;;;5.07;;
8139;SDS011;4111;50.972;7.072;2023-08-21T02:50:23;5.27;;;4.77;;
8139;SDS011;4111;50.972;7.072;2023-08-21T02:52:50;8.57;;;5.40;;
8139;SDS011;4111;50.972;7.072;2023-08-21T02:55:16;6.43;;;5.13;;
8139;SDS011;4111;50.972;7.072;2023-08-21T02:57:43;5.40;;;4.90;;
8139;SDS011;4111;50.972;7.072;2023-08-21T03:00:09;7.60;;;5.83;;
8139;SDS011;4111;50.972;7.072;2023-08-21T03:02:38;7.03;;;5.77;;
8139;SDS011;4111;50.972;7.072;2023-08-21T03:05:05;8.10;;;5.35;;
8139;SDS011;4111;50.972;7.072;2023-08-21T03:07:33;8.00;;;5.93;;
8139;SDS011;4111;50.972;7.072;2023-08-21T03:10:00;5.93;;;5.28;;
8139;SDS011;4111;50.972;7.072;2023-08-21T03:12:28;7.75;;;5.40;;
8139;SDS011;4111;50.972;7.072;2023-08-21T03:14:54;6.23;;;5.00;;
8139;SDS011;4111;50.972;7.072;2023-08-21T03:17:21;6.13;;;4.93;;
8139;SDS011;4111;50.972;7.072;2023-08-21T03:19:47;6.97;;;4.87;;
8139;SDS011;4111;50.972;7.072;2023-08-21T03:22:14;5.13;;;4.40;;
8139;SDS011;4111;50.972;7.072;2023-08-21T03:24:40;5.65;;;4.57;;
8139;SDS011;4111;50.972;7.072;2023-08-21T03:27:07;10.97;;;5.40;;
8139;SDS011;4111;50.972;7.072;2023-08-21T03:29:33;7.63;;;6.70;;
8139;SDS011;4111;50.972;7.072;2023-08-21T03:31:59;6.93;;;5.75;;
8139;SDS011;4111;50.972;7.072;2023-08-21T03:34:26;9.00;;;5.43;;
8139;SDS011;4111;50.972;7.072;2023-08-21T03:36:52;6.15;;;4.68;;
8139;SDS011;4111;50.972;7.072;2023-08-21T03:39:19;7.43;;;5.25;;
8139;SDS011;4111;50.972;7.072;2023-08-21T03:41:45;5.20;;;4.70;;
8139;SDS011;4111;50.972;7.072;2023-08-21T03:44:11;4.90;;;4.35;;
8139;SDS011;4111;50.972;7.072;2023-08-21T03:46:38;6.47;;;5.13;;
8139;SDS011;4111;50.972;7.072;2023-08-21T03:49:04;8.07;;;5.13;;
8139;SDS011;4111;50.972;7.072;2023-08-21T03:51:31;6.80;;;5.20;;
8139;SDS011;4111;50.972;7.072;2023-08-21T03:53:57;7.33;;;5.50;;
8139;SDS011;4111;50.972;7.072;2023-08-21T03:56:24;5.90;;;5.30;;
8139;SDS011;4111;50.972;7.072;2023-08-21T03:58:51;10.18;;;6.40;;
8139;SDS011;4111;50.972;7.072;2023-08-21T04:01:17;7.23;;;5.50;;
8139;SDS011;4111;50.972;7.072;2023-08-21T04:03:44;8.40;;;5.40;;
8139;SDS011;4111;50.972;7.072;2023-08-21T04:06:10;9.33;;;5.30;;
8139;SDS011;4111;50.972;7.072;2023-08-21T04:08:37;6.77;;;4.67;;
8139;SDS011;4111;50.972;7.072;2023-08-21T04:11:04;6.80;;;5.37;;
8139;SDS011;4111;50.972;7.072;2023-08-21T04:13:30;5.37;;;4.87;;
8139;SDS011;4111;50.972;7.072;2023-08-21T04:15:57;5.13;;;4.60;;
8139;SDS011;4111;50.972;7.072;2023-08-21T04:18:23;7.32;;;5.45;;
8139;SDS011;4111;50.972;7.072;2023-08-21T04:21:06;8.13;;;5.43;;
8139;SDS011;4111;50.972;7.072;2023-08-21T04:23:33;6.07;;;5.37;;
8139;SDS011;4111;50.972;7.072;2023-08-21T04:26:00;5.93;;;5.00;;
8139;SDS011;4111;50.972;7.072;2023-08-21T04:28:28;6.23;;;5.00;;
8139;SDS011;4111;50.972;7.072;2023-08-21T04:30:55;6.93;;;5.43;;
8139;SDS011;4111;50.972;7.072;2023-08-21T04:33:29;10.20;;;5.63;;
8139;SDS011;4111;50.972;7.072;2023-08-21T04:35:56;6.63;;;5.80;;
8139;SDS011;4111;50.972;7.072;2023-08-21T04:38:22;6.13;;;4.93;;
8139;SDS011;4111;50.972;7.072;2023-08-21T04:40:49;8.83;;;4.73;;
8139;SDS011;4111;50.972;7.072;2023-08-21T04:43:15;9.40;;;5.00;;
8139;SDS011;4111;50.972;7.072;2023-08-21T04:45:48;9.30;;;5.40;;
8139;SDS011;4111;50.972;7.072;2023-08-21T04:48:17;7.20;;;5.10;;
8139;SDS011;4111;50.972;7.072;2023-08-21T04:50:43;6.57;;;5.97;;
8139;SDS011;4111;50.972;7.072;2023-08-21T04:53:09;8.43;;;5.67;;
8139;SDS011;4111;50.972;7.072;2023-08-21T04:55:36;7.67;;;5.43;;
8139;SDS011;4111;50.972;7.072;2023-08-21T04:58:03;5.63;;;5.13;;
8139;SDS011;4111;50.972;7.072;2023-08-21T05:00:30;6.83;;;5.50;;
8139;SDS011;4111;50.972;7.072;2023-08-21T05:02:57;8.33;;;5.50;;
8139;SDS011;4111;50.972;7.072;2023-08-21T05:05:23;11.20;;;5.60;;
8139;SDS011;4111;50.972;7.072;2023-08-21T05:07:51;8.47;;;5.50;;
8139;SDS011;4111;50.972;7.072;2023-08-21T05:10:19;10.10;;;5.23;;
8139;SDS011;4111;50.972;7.072;2023-08-21T05:12:45;6.70;;;5.70;;
8139;SDS011;4111;50.972;7.072;2023-08-21T05:15:12;7.00;;;5.90;;
8139;SDS011;4111;50.972;7.072;2023-08-21T05:17:39;7.93;;;5.60;;
8139;SDS011;4111;50.972;7.072;2023-08-21T05:20:05;8.90;;;5.47;;
8139;SDS011;4111;50.972;7.072;2023-08-21T05:22:33;6.67;;;5.80;;
8139;SDS011;4111;50.972;7.072;2023-08-21T05:25:00;10.43;;;5.97;;
8139;SDS011;4111;50.972;7.072;2023-08-21T05:27:26;7.57;;;5.70;;
8139;SDS011;4111;50.972;7.072;2023-08-21T05:29:53;9.37;;;5.77;;
8139;SDS011;4111;50.972;7.072;2023-08-21T05:32:19;6.20;;;5.23;;
8139;SDS011;4111;50.972;7.072;2023-08-21T05:34:46;8.63;;;6.00;;
8139;SDS011;4111;50.972;7.072;2023-08-21T05:37:12;6.37;;;5.40;;
8139;SDS011;4111;50.972;7.072;2023-08-21T05:39:39;7.65;;;5.90;;
8139;SDS011;4111;50.972;7.072;2023-08-21T05:42:05;6.90;;;6.00;;
8139;SDS011;4111;50.972;7.072;2023-08-21T05:44:31;6.37;;;5.70;;
8139;SDS011;4111;50.972;7.072;2023-08-21T05:46:58;6.60;;;5.73;;
8139;SDS011;4111;50.972;7.072;2023-08-21T05:49:24;6.43;;;5.80;;
8139;SDS011;4111;50.972;7.072;2023-08-21T05:51:51;6.43;;;5.70;;
8139;SDS011;4111;50.972;7.072;2023-08-21T05:54:17;7.73;;;5.70;;
8139;SDS011;4111;50.972;7.072;2023-08-21T05:56:44;7.47;;;6.40;;
8139;SDS011;4111;50.972;7.072;2023-08-21T05:59:10;11.07;;;6.30;;
8139;SDS011;4111;50.972;7.072;2023-08-21T06:01:38;11.77;;;7.27;;
8139;SDS011;4111;50.972;7.072;2023-08-21T06:04:04;6.47;;;5.70;;
8139;SDS011;4111;50.972;7.072;2023-08-21T06:06:31;11.50;;;7.13;;
8139;SDS011;4111;50.972;7.072;2023-08-21T06:08:57;7.30;;;6.60;;
8139;SDS011;4111;50.972;7.072;2023-08-21T06:11:24;8.57;;;5.90;;
8139;SDS011;4111;50.972;7.072;2023-08-21T06:13:50;8.53;;;5.70;;
8139;SDS011;4111;50.972;7.072;2023-08-21T06:16:17;6.83;;;6.13;;
8139;SDS011;4111;50.972;7.072;2023-08-21T06:18:44;6.72;;;5.93;;
8139;SDS011;4111;50.972;7.072;2023-08-21T06:21:10;7.80;;;6.60;;
8139;SDS011;4111;50.972;7.072;2023-08-21T06:23:36;8.73;;;6.18;;
8139;SDS011;4111;50.972;7.072;2023-08-21T06:26:03;7.05;;;6.45;;
8139;SDS011;4111;50.972;7.072;2023-08-21T06:28:30;12.07;;;6.67;;
8139;SDS011;4111;50.972;7.072;2023-08-21T06:30:57;9.52;;;7.30;;
8139;SDS011;4111;50.972;7.072;2023-08-21T06:33:29;8.10;;;6.32;;
8139;SDS011;4111;50.972;7.072;2023-08-21T06:35:56;9.55;;;6.50;;
8139;SDS011;4111;50.972;7.072;2023-08-21T06:38:22;8.00;;;6.15;;
8139;SDS011;4111;50.972;7.072;2023-08-21T06:40:49;7.18;;;6.47;;
8139;SDS011;4111;50.972;7.072;2023-08-21T06:43:17;9.75;;;6.47;;
8139;SDS011;4111;50.972;7.072;2023-08-21T06:45:43;10.07;;;6.80;;
8139;SDS011;4111;50.972;7.072;2023-08-21T06:48:09;7.40;;;6.13;;
8139;SDS011;4111;50.972;7.072;2023-08-21T06:50:36;8.00;;;6.70;;
8139;SDS011;4111;50.972;7.072;2023-08-21T06:53:03;8.82;;;7.50;;
8139;SDS011;4111;50.972;7.072;2023-08-21T06:55:29;10.25;;;6.78;;
8139;SDS011;4111;50.972;7.072;2023-08-21T06:57:56;9.32;;;6.88;;
8139;SDS011;4111;50.972;7.072;2023-08-21T07:00:22;10.25;;;7.80;;
8139;SDS011;4111;50.972;7.072;2023-08-21T07:02:48;9.73;;;8.73;;
8139;SDS011;4111;50.972;7.072;2023-08-21T07:05:15;10.38;;;9.00;;
8139;SDS011;4111;50.972;7.072;2023-08-21T07:07:42;9.52;;;8.63;;
8139;SDS011;4111;50.972;7.072;2023-08-21T07:10:09;14.43;;;9.13;;
8139;SDS011;4111;50.972;7.072;2023-08-21T07:12:35;10.75;;;9.05;;
8139;SDS011;4111;50.972;7.072;2023-08-21T07:15:02;10.30;;;9.38;;
8139;SDS011;4111;50.972;7.072;2023-08-21T07:17:29;10.45;;;9.10;;
8139;SDS011;4111;50.972;7.072;2023-08-21T07:19:55;10.40;;;9.00;;
8139;SDS011;4111;50.972;7.072;2023-08-21T07:22:22;9.77;;;8.77;;
8139;SDS011;4111;50.972;7.072;2023-08-21T07:24:48;9.85;;;8.77;;
8139;SDS011;4111;50.972;7.072;2023-08-21T07:27:15;11.98;;;9.02;;
8139;SDS011;4111;50.972;7.072;2023-08-21T07:29:41;9.75;;;8.75;;
8139;SDS011;4111;50.972;7.072;2023-08-21T07:32:08;11.07;;;9.82;;
8139;SDS011;4111;50.972;7.072;2023-08-21T07:34:34;14.95;;;9.43;;
8139;SDS011;4111;50.972;7.072;2023-08-21T07:37:00;11.27;;;9.25;;
8139;SDS011;4111;50.972;7.072;2023-08-21T07:39:27;11.40;;;8.85;;
8139;SDS011;4111;50.972;7.072;2023-08-21T07:41:53;10.07;;;9.18;;
8139;SDS011;4111;50.972;7.072;2023-08-21T07:44:20;14.57;;;9.55;;
8139;SDS011;4111;50.972;7.072;2023-08-21T07:46:46;13.73;;;9.20;;
8139;SDS011;4111;50.972;7.072;2023-08-21T07:49:12;15.45;;;8.85;;
8139;SDS011;4111;50.972;7.072;2023-08-21T07:51:39;10.68;;;9.55;;
8139;SDS011;4111;50.972;7.072;2023-08-21T07:54:05;10.07;;;9.18;;
8139;SDS011;4111;50.972;7.072;2023-08-21T07:56:32;9.98;;;9.13;;
8139;SDS011;4111;50.972;7.072;2023-08-21T07:58:59;9.88;;;8.93;;
8139;SDS011;4111;50.972;7.072;2023-08-21T08:01:25;11.25;;;10.32;;
8139;SDS011;4111;50.972;7.072;2023-08-21T08:03:52;10.95;;;9.07;;
8139;SDS011;4111;50.972;7.072;2023-08-21T08:06:18;11.05;;;9.82;;
8139;SDS011;4111;50.972;7.072;2023-08-21T08:08:45;10.10;;;9.10;;
8139;SDS011;4111;50.972;7.072;2023-08-21T08:11:11;10.45;;;9.60;;
8139;SDS011;4111;50.972;7.072;2023-08-21T08:13:38;11.48;;;10.38;;
8139;SDS011;4111;50.972;7.072;2023-08-21T08:16:04;13.65;;;10.68;;
8139;SDS011;4111;50.972;7.072;2023-08-21T08:18:31;11.32;;;10.18;;
8139;SDS011;4111;50.972;7.072;2023-08-21T08:20:57;13.52;;;9.73;;
8139;SDS011;4111;50.972;7.072;2023-08-21T08:23:24;12.88;;;9.43;;
8139;SDS011;4111;50.972;7.072;2023-08-21T08:25:50;11.20;;;10.10;;
8139;SDS011;4111;50.972;7.072;2023-08-21T08:28:16;12.13;;;9.82;;
8139;SDS011;4111;50.972;7.072;2023-08-21T08:30:43;10.13;;;9.27;;
8139;SDS011;4111;50.972;7.072;2023-08-21T08:33:09;10.63;;;9.45;;
8139;SDS011;4111;50.972;7.072;2023-08-21T08:35:36;10.55;;;9.32;;
8139;SDS011;4111;50.972;7.072;2023-08-21T08:38:02;10.80;;;9.90;;
8139;SDS011;4111;50.972;7.072;2023-08-21T08:40:29;14.40;;;10.20;;
8139;SDS011;4111;50.972;7.072;2023-08-21T08:42:57;11.48;;;10.15;;
8139;SDS011;4111;50.972;7.072;2023-08-21T08:45:28;9.93;;;9.02;;
8139;SDS011;4111;50.972;7.072;2023-08-21T08:48:01;10.02;;;9.18;;
8139;SDS011;4111;50.972;7.072;2023-08-21T08:50:32;11.40;;;10.07;;
8139;SDS011;4111;50.972;7.072;2023-08-21T08:52:59;11.43;;;10.25;;
8139;SDS011;4111;50.972;7.072;2023-08-21T08:55:40;10.55;;;9.35;;
8139;SDS011;4111;50.972;7.072;2023-08-21T08:58:06;14.35;;;11.00;;
8139;SDS011;4111;50.972;7.072;2023-08-21T09:00:33;14.18;;;12.10;;
8139;SDS011;4111;50.972;7.072;2023-08-21T09:02:59;13.70;;;12.18;;
8139;SDS011;4111;50.972;7.072;2023-08-21T09:05:26;13.25;;;11.00;;
8139;SDS011;4111;50.972;7.072;2023-08-21T09:08:02;11.35;;;10.35;;
8139;SDS011;4111;50.972;7.072;2023-08-21T09:10:30;10.95;;;9.65;;
8139;SDS011;4111;50.972;7.072;2023-08-21T09:12:57;14.55;;;9.68;;
8139;SDS011;4111;50.972;7.072;2023-08-21T09:15:27;12.55;;;9.32;;
8139;SDS011;4111;50.972;7.072;2023-08-21T09:18:08;12.90;;;9.93;;
8139;SDS011;4111;50.972;7.072;2023-08-21T09:20:36;11.48;;;8.85;;
8139;SDS011;4111;50.972;7.072;2023-08-21T09:23:03;8.82;;;7.97;;
8139;SDS011;4111;50.972;7.072;2023-08-21T09:25:36;11.05;;;8.48;;
8139;SDS011;4111;50.972;7.072;2023-08-21T09:28:08;11.02;;;9.00;;
8139;SDS011;4111;50.972;7.072;2023-08-21T09:33:11;13.75;;;9.55;;
8139;SDS011;4111;50.972;7.072;2023-08-21T09:35:37;13.43;;;7.97;;
8139;SDS011;4111;50.972;7.072;2023-08-21T09:38:05;9.02;;;7.85;;
8139;SDS011;4111;50.972;7.072;2023-08-21T09:40:33;10.48;;;8.35;;
8139;SDS011;4111;50.972;7.072;2023-08-21T09:42:59;9.95;;;8.05;;
8139;SDS011;4111;50.972;7.072;2023-08-21T09:45:29;8.38;;;7.50;;
8139;SDS011;4111;50.972;7.072;2023-08-21T09:47:56;13.68;;;7.88;;
8139;SDS011;4111;50.972;7.072;2023-08-21T09:50:24;13.20;;;7.43;;
8139;SDS011;4111;50.972;7.072;2023-08-21T09:52:52;15.30;;;7.97;;
8139;SDS011;4111;50.972;7.072;2023-08-21T09:55:19;8.35;;;6.97;;
8139;SDS011;4111;50.972;7.072;2023-08-21T09:57:48;8.95;;;6.85;;
8139;SDS011;4111;50.972;7.072;2023-08-21T10:00:16;6.90;;;6.00;;
8139;SDS011;4111;50.972;7.072;2023-08-21T10:02:50;9.52;;;5.40;;
8139;SDS011;4111;50.972;7.072;2023-08-21T10:05:17;9.23;;;7.30;;
8139;SDS011;4111;50.972;7.072;2023-08-21T10:07:44;8.80;;;6.97;;
8139;SDS011;4111;50.972;7.072;2023-08-21T10:10:16;9.45;;;6.90;;
8139;SDS011;4111;50.972;7.072;2023-08-21T10:12:43;6.97;;;6.07;;
8139;SDS011;4111;50.972;7.072;2023-08-21T10:15:09;8.95;;;6.65;;
8139;SDS011;4111;50.972;7.072;2023-08-21T10:17:37;7.53;;;6.00;;
8139;SDS011;4111;50.972;7.072;2023-08-21T10:20:06;10.85;;;7.65;;
8139;SDS011;4111;50.972;7.072;2023-08-21T10:22:41;9.35;;;6.53;;
8139;SDS011;4111;50.972;7.072;2023-08-21T10:27:50;8.07;;;6.70;;
8139;SDS011;4111;50.972;7.072;2023-08-21T10:30:22;7.93;;;6.85;;
8139;SDS011;4111;50.972;7.072;2023-08-21T10:32:51;8.55;;;7.45;;
8139;SDS011;4111;50.972;7.072;2023-08-21T10:35:20;7.90;;;6.63;;
8139;SDS011;4111;50.972;7.072;2023-08-21T10:40:35;13.57;;;8.25;;
8139;SDS011;4111;50.972;7.072;2023-08-21T10:43:02;7.75;;;7.00;;
8139;SDS011;4111;50.972;7.072;2023-08-21T10:45:29;13.45;;;7.85;;
8139;SDS011;4111;50.972;7.072;2023-08-21T10:47:57;10.35;;;6.90;;
8139;SDS011;4111;50.972;7.072;2023-08-21T10:50:25;8.38;;;7.60;;
8139;SDS011;4111;50.972;7.072;2023-08-21T10:52:52;9.32;;;7.50;;
8139;SDS011;4111;50.972;7.072;2023-08-21T10:55:20;11.70;;;6.78;;
8139;SDS011;4111;50.972;7.072;2023-08-21T10:57:47;8.05;;;7.15;;
8139;SDS011;4111;50.972;7.072;2023-08-21T11:00:15;11.93;;;7.57;;
8139;SDS011;4111;50.972;7.072;2023-08-21T11:02:44;10.05;;;7.47;;
8139;SDS011;4111;50.972;7.072;2023-08-21T11:05:12;10.20;;;7.10;;
8139;SDS011;4111;50.972;7.072;2023-08-21T11:10:10;8.73;;;7.28;;
8139;SDS011;4111;50.972;7.072;2023-08-21T11:12:47;10.48;;;7.80;;
8139;SDS011;4111;50.972;7.072;2023-08-21T11:15:16;11.35;;;7.15;;
8139;SDS011;4111;50.972;7.072;2023-08-21T11:17:53;9.55;;;6.18;;
8139;SDS011;4111;50.972;7.072;2023-08-21T11:20:20;10.70;;;6.65;;
8139;SDS011;4111;50.972;7.072;2023-08-21T11:22:47;13.60;;;6.43;;
8139;SDS011;4111;50.972;7.072;2023-08-21T11:25:14;8.20;;;6.30;;
8139;SDS011;4111;50.972;7.072;2023-08-21T11:27:42;9.70;;;5.88;;
8139;SDS011;4111;50.972;7.072;2023-08-21T11:30:10;8.35;;;6.40;;
8139;SDS011;4111;50.972;7.072;2023-08-21T11:32:37;7.72;;;6.78;;
8139;SDS011;4111;50.972;7.072;2023-08-21T11:35:07;8.82;;;6.97;;
8139;SDS011;4111;50.972;7.072;2023-08-21T11:37:42;9.30;;;6.50;;
8139;SDS011;4111;50.972;7.072;2023-08-21T11:40:11;9.70;;;6.45;;
8139;SDS011;4111;50.972;7.072;2023-08-21T11:42:39;9.40;;;5.82;;
8139;SDS011;4111;50.972;7.072;2023-08-21T11:45:05;7.22;;;6.03;;
8139;SDS011;4111;50.972;7.072;2023-08-21T11:47:35;9.68;;;7.15;;
8139;SDS011;4111;50.972;7.072;2023-08-21T11:50:06;8.88;;;6.65;;
8139;SDS011;4111;50.972;7.072;2023-08-21T11:52:36;9.38;;;6.25;;
8139;SDS011;4111;50.972;7.072;2023-08-21T11:55:08;7.63;;;6.20;;
8139;SDS011;4111;50.972;7.072;2023-08-21T11:57:46;6.95;;;5.97;;
8139;SDS011;4111;50.972;7.072;2023-08-21T12:00:17;9.15;;;5.75;;
8139;SDS011;4111;50.972;7.072;2023-08-21T12:02:55;6.65;;;5.90;;
8139;SDS011;4111;50.972;7.072;2023-08-21T12:05:29;10.80;;;6.18;;
8139;SDS011;4111;50.972;7.072;2023-08-21T12:07:56;6.72;;;5.25;;
8139;SDS011;4111;50.972;7.072;2023-08-21T12:10:26;10.20;;;5.28;;
8139;SDS011;4111;50.972;7.072;2023-08-21T12:12:54;8.40;;;5.22;;
8139;SDS011;4111;50.972;7.072;2023-08-21T12:15:21;5.70;;;5.00;;
8139;SDS011;4111;50.972;7.072;2023-08-21T12:17:48;9.07;;;5.38;;
8139;SDS011;4111;50.972;7.072;2023-08-21T12:20:14;12.82;;;4.70;;
8139;SDS011;4111;50.972;7.072;2023-08-21T12:22:41;9.05;;;5.03;;
8139;SDS011;4111;50.972;7.072;2023-08-21T12:25:10;7.80;;;4.40;;
8139;SDS011;4111;50.972;7.072;2023-08-21T12:27:37;10.05;;;5.10;;
8139;SDS011;4111;50.972;7.072;2023-08-21T12:30:04;6.88;;;4.20;;
8139;SDS011;4111;50.972;7.072;2023-08-21T12:32:32;10.77;;;4.63;;
8139;SDS011;4111;50.972;7.072;2023-08-21T12:34:58;7.50;;;5.25;;
8139;SDS011;4111;50.972;7.072;2023-08-21T12:37:25;8.70;;;4.15;;
8139;SDS011;4111;50.972;7.072;2023-08-21T12:39:51;4.70;;;4.30;;
8139;SDS011;4111;50.972;7.072;2023-08-21T12:42:19;8.75;;;4.20;;
8139;SDS011;4111;50.972;7.072;2023-08-21T12:44:46;6.03;;;4.03;;
8139;SDS011;4111;50.972;7.072;2023-08-21T12:47:12;10.38;;;4.70;;
8139;SDS011;4111;50.972;7.072;2023-08-21T12:49:38;6.22;;;3.72;;
8139;SDS011;4111;50.972;7.072;2023-08-21T12:52:05;6.22;;;3.95;;
8139;SDS011;4111;50.972;7.072;2023-08-21T12:54:36;6.97;;;5.35;;
8139;SDS011;4111;50.972;7.072;2023-08-21T12:57:02;8.52;;;4.45;;
8139;SDS011;4111;50.972;7.072;2023-08-21T12:59:29;10.13;;;4.53;;
8139;SDS011;4111;50.972;7.072;2023-08-21T13:01:55;8.05;;;4.22;;
8139;SDS011;4111;50.972;7.072;2023-08-21T13:04:21;6.43;;;4.38;;
8139;SDS011;4111;50.972;7.072;2023-08-21T13:06:48;6.05;;;4.13;;
8139;SDS011;4111;50.972;7.072;2023-08-21T13:09:15;9.70;;;4.93;;
8139;SDS011;4111;50.972;7.072;2023-08-21T13:11:41;8.07;;;4.65;;
8139;SDS011;4111;50.972;7.072;2023-08-21T13:14:08;6.15;;;4.18;;
8139;SDS011;4111;50.972;7.072;2023-08-21T13:16:34;5.05;;;3.92;;
8139;SDS011;4111;50.972;7.072;2023-08-21T13:19:00;4.95;;;4.07;;
8139;SDS011;4111;50.972;7.072;2023-08-21T13:21:27;11.73;;;4.05;;
8139;SDS011;4111;50.972;7.072;2023-08-21T13:23:53;5.28;;;4.00;;
8139;SDS011;4111;50.972;7.072;2023-08-21T13:26:20;5.85;;;4.40;;
8139;SDS011;4111;50.972;7.072;2023-08-21T13:28:46;3.97;;;3.20;;
8139;SDS011;4111;50.972;7.072;2023-08-21T13:31:13;5.97;;;3.70;;
8139;SDS011;4111;50.972;7.072;2023-08-21T13:33:49;6.22;;;3.70;;
8139;SDS011;4111;50.972;7.072;2023-08-21T13:36:17;5.80;;;3.63;;
8139;SDS011;4111;50.972;7.072;2023-08-21T13:38:44;5.97;;;3.92;;
8139;SDS011;4111;50.972;7.072;2023-08-21T13:41:11;5.03;;;3.70;;
8139;SDS011;4111;50.972;7.072;2023-08-21T13:43:37;4.28;;;3.10;;
8139;SDS011;4111;50.972;7.072;2023-08-21T13:46:06;7.10;;;3.53;;
8139;SDS011;4111;50.972;7.072;2023-08-21T13:48:33;6.70;;;3.55;;
8139;SDS011;4111;50.972;7.072;2023-08-21T13:51:00;5.50;;;3.72;;
8139;SDS011;4111;50.972;7.072;2023-08-21T13:53:26;5.88;;;3.70;;
8139;SDS011;4111;50.972;7.072;2023-08-21T13:55:53;5.47;;;3.47;;
8139;SDS011;4111;50.972;7.072;2023-08-21T13:58:20;5.25;;;3.35;;
8139;SDS011;4111;50.972;7.072;2023-08-21T14:00:47;6.57;;;3.47;;
8139;SDS011;4111;50.972;7.072;2023-08-21T14:03:13;3.67;;;3.10;;
8139;SDS011;4111;50.972;7.072;2023-08-21T14:05:40;8.13;;;3.55;;
8139;SDS011;4111;50.972;7.072;2023-08-21T14:08:07;5.78;;;3.30;;
8139;SDS011;4111;50.972;7.072;2023-08-21T14:10:34;4.50;;;3.72;;
8139;SDS011;4111;50.972;7.072;2023-08-21T14:13:01;4.28;;;3.17;;
8139;SDS011;4111;50.972;7.072;2023-08-21T14:15:29;6.25;;;3.28;;
8139;SDS011;4111;50.972;7.072;2023-08-21T14:17:56;6.32;;;3.10;;
8139;SDS011;4111;50.972;7.072;2023-08-21T14:20:22;4.47;;;2.85;;
8139;SDS011;4111;50.972;7.072;2023-08-21T14:22:49;4.10;;;3.38;;
8139;SDS011;4111;50.972;7.072;2023-08-21T14:25:16;6.65;;;3.15;;
8139;SDS011;4111;50.972;7.072;2023-08-21T14:27:43;3.70;;;3.03;;
8139;SDS011;4111;50.972;7.072;2023-08-21T14:30:10;4.50;;;3.28;;
8139;SDS011;4111;50.972;7.072;2023-08-21T14:32:36;5.90;;;3.17;;
8139;SDS011;4111;50.972;7.072;2023-08-21T14:35:04;8.02;;;3.45;;
8139;SDS011;4111;50.972;7.072;2023-08-21T14:37:33;6.47;;;3.10;;
8139;SDS011;4111;50.972;7.072;2023-08-21T14:40:00;5.30;;;3.20;;
8139;SDS011;4111;50.972;7.072;2023-08-21T14:42:32;4.35;;;2.90;;
8139;SDS011;4111;50.972;7.072;2023-08-21T14:44:59;3.45;;;3.03;;
8139;SDS011;4111;50.972;7.072;2023-08-21T14:47:25;5.97;;;3.20;;
8139;SDS011;4111;50.972;7.072;2023-08-21T14:49:52;4.85;;;2.90;;
8139;SDS011;4111;50.972;7.072;2023-08-21T14:52:18;4.40;;;2.67;;
8139;SDS011;4111;50.972;7.072;2023-08-21T14:54:45;4.03;;;2.58;;
8139;SDS011;4111;50.972;7.072;2023-08-21T14:57:11;6.55;;;3.20;;
8139;SDS011;4111;50.972;7.072;2023-08-21T14:59:38;4.30;;;3.10;;
8139;SDS011;4111;50.972;7.072;2023-08-21T15:02:04;5.38;;;2.97;;
8139;SDS011;4111;50.972;7.072;2023-08-21T15:04:31;5.43;;;3.17;;
8139;SDS011;4111;50.972;7.072;2023-08-21T15:06:57;5.03;;;3.13;;
8139;SDS011;4111;50.972;7.072;2023-08-21T15:09:24;7.82;;;3.70;;
8139;SDS011;4111;50.972;7.072;2023-08-21T15:11:50;5.32;;;2.90;;
8139;SDS011;4111;50.972;7.072;2023-08-21T15:14:16;3.70;;;2.65;;
8139;SDS011;4111;50.972;7.072;2023-08-21T15:16:43;4.90;;;2.65;;
8139;SDS011;4111;50.972;7.072;2023-08-21T15:19:09;2.97;;;2.50;;
8139;SDS011;4111;50.972;7.072;2023-08-21T15:21:36;5.00;;;2.97;;
8139;SDS011;4111;50.972;7.072;2023-08-21T15:24:03;6.32;;;3.30;;
8139;SDS011;4111;50.972;7.072;2023-08-21T15:26:32;4.57;;;2.90;;